createdAt,value
2018-06-12T00:01:57.147Z,17.70
2018-06-12T00:04:29.247Z,17.70
2018-06-12T00:06:57.041Z,17.80
2018-06-12T00:09:24.804Z,17.80
2018-06-12T00:11:52.485Z,17.80
2018-06-12T00:14:20.381Z,17.80
2018-06-12T00:16:48.030Z,17.70
2018-06-12T00:19:15.752Z,17.70
2018-06-12T00:21:43.652Z,17.70
2018-06-12T00:24:11.349Z,17.60
2018-06-12T00:26:38.956Z,17.70
2018-06-12T00:29:06.568Z,17.60
2018-06-12T00:31:34.302Z,17.60
2018-06-12T00:34:02.068Z,17.60
2018-06-12T00:36:29.742Z,17.60
2018-06-12T00:38:57.464Z,17.60
2018-06-12T00:41:25.106Z,17.70
2018-06-12T00:43:52.883Z,17.60
2018-06-12T00:46:20.537Z,17.60
2018-06-12T00:48:48.259Z,17.60
2018-06-12T00:51:15.957Z,17.50
2018-06-12T00:53:43.877Z,17.60
2018-06-12T00:56:15.929Z,17.50
2018-06-12T00:58:43.577Z,17.50
2018-06-12T01:01:20.083Z,17.50
2018-06-12T01:03:47.877Z,17.50
2018-06-12T01:06:15.546Z,17.60
2018-06-12T01:08:43.327Z,17.60
2018-06-12T01:11:10.989Z,17.60
2018-06-12T01:13:38.657Z,17.60
2018-06-12T01:16:06.333Z,17.50
2018-06-12T01:18:34.112Z,17.50
2018-06-12T01:21:01.679Z,17.50
2018-06-12T01:23:29.365Z,17.50
2018-06-12T01:25:56.970Z,17.50
2018-06-12T01:28:24.650Z,17.60
2018-06-12T01:30:52.266Z,17.50
2018-06-12T01:33:20.032Z,17.50
2018-06-12T01:35:47.611Z,17.60
2018-06-12T01:38:15.315Z,17.60
2018-06-12T01:40:42.949Z,17.50
2018-06-12T01:43:10.723Z,17.60
2018-06-12T01:45:38.337Z,17.60
2018-06-12T01:48:05.989Z,17.50
2018-06-12T01:50:33.595Z,17.50
2018-06-12T01:53:01.348Z,17.50
2018-06-12T01:55:28.999Z,17.50
2018-06-12T01:57:56.690Z,17.50
2018-06-12T02:00:24.293Z,17.50
2018-06-12T02:02:59.903Z,17.50
2018-06-12T02:05:27.573Z,17.50
2018-06-12T02:07:55.206Z,17.50
2018-06-12T02:10:23.009Z,17.50
2018-06-12T02:12:50.659Z,17.50
2018-06-12T02:15:18.314Z,17.50
2018-06-12T02:17:45.990Z,17.40
2018-06-12T02:20:14.176Z,17.40
2018-06-12T02:22:42.056Z,17.40
2018-06-12T02:25:09.724Z,17.50
2018-06-12T02:27:37.364Z,17.40
2018-06-12T02:30:04.990Z,17.50
2018-06-12T02:32:32.672Z,17.40
2018-06-12T02:35:00.294Z,17.40
2018-06-12T02:37:27.909Z,17.40
2018-06-12T02:39:55.556Z,17.30
2018-06-12T02:42:23.394Z,17.30
2018-06-12T02:44:51.113Z,17.20
2018-06-12T02:47:18.752Z,17.30
2018-06-12T02:49:46.436Z,17.30
2018-06-12T02:52:14.120Z,17.20
2018-06-12T02:54:41.699Z,17.30
2018-06-12T02:57:09.313Z,17.20
2018-06-12T02:59:37.052Z,17.20
2018-06-12T03:02:04.656Z,17.20
2018-06-12T03:04:32.467Z,17.20
2018-06-12T03:07:00.419Z,17.10
2018-06-12T03:09:28.069Z,17.00
2018-06-12T03:11:55.683Z,17.00
2018-06-12T03:14:23.409Z,16.90
2018-06-12T03:17:07.715Z,16.90
2018-06-12T03:19:35.424Z,16.90
2018-06-12T03:22:03.214Z,16.90
2018-06-12T03:24:30.881Z,16.80
2018-06-12T03:26:58.567Z,16.80
2018-06-12T03:29:26.327Z,16.70
2018-06-12T03:31:53.995Z,16.70
2018-06-12T03:34:21.649Z,16.70
2018-06-12T03:36:49.327Z,16.70
2018-06-12T03:39:16.992Z,16.70
2018-06-12T03:41:45.108Z,16.60
2018-06-12T03:44:12.717Z,16.60
2018-06-12T03:46:40.322Z,16.70
2018-06-12T03:49:07.945Z,16.60
2018-06-12T03:51:35.534Z,16.60
2018-06-12T03:54:03.508Z,16.70
2018-06-12T03:56:31.151Z,16.70
2018-06-12T03:58:58.899Z,16.70
2018-06-12T04:01:26.507Z,16.60
2018-06-12T04:03:54.144Z,16.50
2018-06-12T04:06:21.820Z,16.50
2018-06-12T04:08:49.547Z,16.50
2018-06-12T04:11:17.193Z,16.50
2018-06-12T04:13:44.834Z,16.50
2018-06-12T04:16:12.939Z,16.60
2018-06-12T04:18:40.556Z,16.50
2018-06-12T04:21:08.235Z,16.40
2018-06-12T04:23:35.905Z,16.40
2018-06-12T04:26:04.693Z,16.40
2018-06-12T04:28:32.375Z,16.40
2018-06-12T04:31:00.162Z,16.60
2018-06-12T04:33:27.848Z,16.70
2018-06-12T04:35:55.518Z,16.80
2018-06-12T04:38:23.185Z,16.90
2018-06-12T04:40:52.156Z,16.90
2018-06-12T04:43:19.923Z,16.90
2018-06-12T04:45:47.764Z,16.90
2018-06-12T04:48:15.462Z,17.00
2018-06-12T04:50:43.058Z,16.80
2018-06-12T04:53:10.720Z,16.90
2018-06-12T04:55:38.391Z,16.90
2018-06-12T04:58:06.011Z,16.90
2018-06-12T05:00:33.707Z,16.90
2018-06-12T05:03:01.495Z,16.80
2018-06-12T05:05:29.377Z,16.80
2018-06-12T05:07:56.981Z,16.90
2018-06-12T05:10:24.643Z,16.90
2018-06-12T05:12:52.273Z,16.90
2018-06-12T05:15:20.182Z,16.90
2018-06-12T05:17:47.900Z,16.90
2018-06-12T05:20:15.524Z,16.90
2018-06-12T05:22:43.504Z,16.80
2018-06-12T05:25:11.179Z,16.90
2018-06-12T05:27:38.941Z,16.80
2018-06-12T05:30:06.567Z,16.90
2018-06-12T05:32:34.189Z,16.80
2018-06-12T05:35:01.822Z,16.80
2018-06-12T05:37:29.515Z,16.80
2018-06-12T05:39:57.206Z,16.90
2018-06-12T05:42:24.843Z,16.90
2018-06-12T05:44:52.507Z,16.90
2018-06-12T05:47:20.161Z,16.90
2018-06-12T05:49:47.819Z,16.90
2018-06-12T05:52:15.666Z,16.90
2018-06-12T05:54:44.258Z,17.00
2018-06-12T05:57:12.082Z,16.90
2018-06-12T05:59:39.734Z,16.90
2018-06-12T06:02:07.401Z,17.00
2018-06-12T06:04:35.067Z,17.00
2018-06-12T06:07:02.675Z,17.00
2018-06-12T06:09:34.326Z,16.90
2018-06-12T06:12:02.042Z,17.10
2018-06-12T06:14:29.708Z,17.10
2018-06-12T06:16:57.479Z,17.20
2018-06-12T06:19:25.042Z,17.10
2018-06-12T06:21:52.752Z,17.20
2018-06-12T06:24:20.399Z,17.20
2018-06-12T06:26:48.118Z,17.30
2018-06-12T06:29:16.117Z,17.20
2018-06-12T06:31:43.955Z,17.20
2018-06-12T06:34:11.501Z,17.10
2018-06-12T06:36:41.214Z,17.10
2018-06-12T06:39:09.119Z,17.00
2018-06-12T06:41:36.744Z,16.90
2018-06-12T06:44:04.451Z,16.90
2018-06-12T06:46:32.120Z,16.80
2018-06-12T06:48:59.828Z,16.80
2018-06-12T06:51:27.470Z,16.90
2018-06-12T06:53:55.218Z,16.90
2018-06-12T06:56:22.815Z,16.90
2018-06-12T06:58:50.501Z,16.80
2018-06-12T07:01:18.513Z,16.80
2018-06-12T07:03:46.357Z,16.80
2018-06-12T07:06:14.221Z,16.70
2018-06-12T07:08:42.081Z,16.70
2018-06-12T07:11:09.839Z,16.70
2018-06-12T07:13:37.514Z,16.70
2018-06-12T07:16:05.412Z,16.70
2018-06-12T07:18:33.121Z,16.80
2018-06-12T07:21:08.272Z,16.90
2018-06-12T07:23:36.002Z,16.90
2018-06-12T07:26:06.364Z,17.00
2018-06-12T07:28:34.162Z,17.00
2018-06-12T07:31:02.010Z,17.00
2018-06-12T07:33:29.709Z,17.10
2018-06-12T07:35:57.565Z,17.10
2018-06-12T07:38:25.315Z,17.10
2018-06-12T07:40:53.298Z,17.10
2018-06-12T07:43:20.994Z,17.20
2018-06-12T07:45:48.616Z,17.00
2018-06-12T07:48:16.304Z,17.00
2018-06-12T07:50:48.170Z,17.00
2018-06-12T07:53:15.894Z,16.90
2018-06-12T07:55:43.674Z,16.90
2018-06-12T07:58:11.410Z,16.90
2018-06-12T08:00:39.044Z,16.90
2018-06-12T08:05:46.200Z,16.80
2018-06-12T08:08:18.172Z,16.70
2018-06-12T08:11:15.674Z,16.70
2018-06-12T08:13:51.026Z,16.70
2018-06-12T08:16:20.164Z,16.60
2018-06-12T08:18:48.461Z,16.50
2018-06-12T08:21:17.458Z,16.40
2018-06-12T08:23:46.448Z,16.50
2018-06-12T08:26:18.739Z,16.50
2018-06-12T08:31:48.198Z,16.60
2018-06-12T08:34:16.385Z,16.60
2018-06-12T08:36:47.909Z,16.50
2018-06-12T08:44:21.262Z,16.50
2018-06-12T08:46:50.965Z,16.70
2018-06-12T08:49:19.244Z,16.80
2018-06-12T09:01:15.089Z,16.70
2018-06-12T09:03:47.008Z,16.80
2018-06-12T09:06:22.268Z,16.80
2018-06-12T09:11:46.249Z,16.90
2018-06-12T09:14:16.523Z,16.90
2018-06-12T09:32:10.646Z,17.00
2018-06-12T09:34:42.066Z,17.10
2018-06-12T09:37:09.895Z,17.20
2018-06-12T09:39:44.742Z,17.20
2018-06-12T09:42:21.110Z,17.20
2018-06-12T09:45:08.738Z,17.10
2018-06-12T09:47:43.490Z,17.00
2018-06-12T09:50:11.266Z,17.00
2018-06-12T09:52:39.779Z,17.00
2018-06-12T10:00:08.721Z,17.00
2018-06-12T10:02:37.466Z,17.00
2018-06-12T10:05:20.201Z,17.20
2018-06-12T10:07:48.623Z,17.20
2018-06-12T10:10:16.411Z,17.10
2018-06-12T13:21:15.746Z,19.30
2018-06-12T13:23:47.066Z,19.40
2018-06-12T13:26:23.115Z,19.30
2018-06-12T13:28:51.910Z,19.10
2018-06-12T13:31:19.565Z,18.90
2018-06-12T13:36:37.258Z,19.30
2018-06-12T13:39:05.582Z,19.50
2018-06-12T13:41:34.067Z,19.50
2018-06-12T13:44:02.484Z,19.70
2018-06-12T13:46:30.292Z,19.70
2018-06-12T13:48:57.826Z,19.80
2018-06-12T13:51:25.410Z,19.70
2018-06-12T13:53:53.014Z,19.70
2018-06-12T13:56:20.816Z,19.70
2018-06-12T13:58:49.429Z,19.70
2018-06-12T14:01:17.104Z,19.70
2018-06-12T14:03:44.730Z,19.70
2018-06-12T14:06:12.366Z,19.80
2018-06-12T14:11:26.350Z,19.70
2018-06-12T14:13:53.926Z,19.70
2018-06-12T14:16:21.570Z,19.70
2018-06-12T14:18:49.208Z,19.60
2018-06-12T14:21:16.994Z,19.60
2018-06-12T14:23:44.635Z,19.60
2018-06-12T14:26:12.276Z,19.70
2018-06-12T14:28:41.854Z,19.70
2018-06-12T14:31:09.459Z,19.70
2018-06-12T14:33:40.207Z,19.70
2018-06-12T14:36:08.645Z,19.70
2018-06-12T14:38:36.397Z,19.70
2018-06-12T14:41:04.040Z,19.80
2018-06-12T14:43:37.601Z,19.80
2018-06-12T14:46:05.327Z,19.70
2018-06-12T14:48:32.957Z,19.60
2018-06-12T14:51:00.617Z,19.50
2018-06-12T14:53:28.353Z,19.50
2018-06-12T14:55:55.975Z,19.50
2018-06-12T14:58:23.653Z,19.40
2018-06-12T15:00:51.403Z,19.40
2018-06-12T15:03:19.035Z,19.50
2018-06-12T15:05:46.907Z,19.40
2018-06-12T15:08:14.530Z,19.50
2018-06-12T15:10:46.549Z,19.50
2018-06-12T15:13:15.315Z,19.50
2018-06-12T15:15:43.013Z,19.60
2018-06-12T15:18:10.622Z,19.60
2018-06-12T15:20:38.259Z,19.70
2018-06-12T15:23:05.943Z,19.70
2018-06-12T15:25:33.915Z,19.60
2018-06-12T15:28:01.589Z,19.60
2018-06-12T15:30:29.346Z,19.60
2018-06-12T15:32:57.210Z,19.60
2018-06-12T15:35:24.876Z,19.70
2018-06-12T15:37:52.569Z,19.80
2018-06-12T15:40:20.226Z,19.90
2018-06-12T15:45:34.860Z,19.80
2018-06-12T15:48:03.702Z,19.70
2018-06-12T15:50:31.358Z,19.70
2018-06-12T15:52:59.137Z,19.70
2018-06-12T15:55:27.005Z,19.70
2018-06-12T15:57:54.902Z,19.70
2018-06-12T16:00:23.274Z,19.70
2018-06-12T16:02:52.209Z,19.50
2018-06-12T16:05:26.635Z,19.50
2018-06-12T16:07:56.136Z,19.50
2018-06-12T16:10:24.282Z,19.50
2018-06-12T16:12:53.888Z,19.50
2018-06-12T16:15:22.739Z,19.40
2018-06-12T16:17:50.617Z,19.30
2018-06-12T16:20:18.407Z,19.40
2018-06-12T16:22:46.279Z,19.40
2018-06-12T16:25:15.955Z,19.30
2018-06-12T16:27:45.372Z,19.30
2018-06-12T16:30:14.581Z,19.20
2018-06-12T16:32:45.494Z,19.30
2018-06-12T16:35:15.345Z,19.30
2018-06-12T16:37:45.756Z,19.30
2018-06-12T16:40:16.319Z,19.30
2018-06-12T16:42:47.025Z,19.30
2018-06-12T16:45:16.985Z,19.20
2018-06-12T16:47:45.825Z,19.20
2018-06-12T16:50:17.631Z,19.20
2018-06-12T16:52:46.334Z,19.10
2018-06-12T16:55:17.325Z,19.10
2018-06-12T16:57:45.113Z,19.10
2018-06-12T17:00:15.194Z,19.10
2018-06-12T17:02:46.565Z,19.10
2018-06-12T17:08:16.357Z,19.20
2018-06-12T17:10:47.065Z,19.10
2018-06-12T17:13:18.206Z,19.10
2018-06-12T17:18:44.472Z,19.10
2018-06-12T17:21:18.117Z,19.00
2018-06-12T17:23:47.009Z,18.90
2018-06-12T17:26:16.579Z,19.00
2018-06-12T17:28:44.493Z,19.10
